Time;durP1;ratioP1;P1;durP2;ratioP2;P2;SDS_P1;SDS_P2;PMS_P1;PMS_P2;Temp;Humidity;BMP_temperature;BMP_pressure;BME280_temperature;BME280_humidity;BME280_pressure;Samples;Min_cycle;Max_cycle;Signal;HPM_P1;HPM_P2
2022/11/30 00:01:07;;;;;;;4.47;2.87;;;;;;;;;;10514487;28;20636;-77
2022/11/30 00:06:10;;;;;;;3.88;2.63;;;;;;;;;;10527775;28;20027;-78
2022/11/30 00:11:15;;;;;;;5.10;2.65;;;;;;;;;;10550684;28;20151;-76
2022/11/30 00:16:15;;;;;;;5.00;2.47;;;;;;;;;;10559221;28;20019;-75
2022/11/30 00:21:16;;;;;;;3.78;2.70;;;;;;;;;;10573094;28;20027;-75
2022/11/30 00:26:17;;;;;;;4.30;2.27;;;;;;;;;;10540223;28;20194;-75
2022/11/30 00:31:18;;;;;;;4.47;3.20;;;;;;;;;;10559610;28;20800;-75
2022/11/30 00:36:20;;;;;;;7.65;3.72;;;;;;;;;;10554439;28;20069;-80
2022/11/30 00:41:21;;;;;;;11.57;3.90;;;;;;;;;;10567719;28;20522;-72
2022/11/30 00:46:21;;;;;;;3.70;2.80;;;;;;;;;;10568011;28;20114;-74
2022/11/30 00:51:21;;;;;;;5.03;2.83;;;;;;;;;;10549478;28;20516;-75
2022/11/30 00:56:21;;;;;;;4.53;2.63;;;;;;;;;;10508414;28;20047;-75
2022/11/30 01:01:22;;;;;;;3.03;2.10;;;;;;;;;;10529768;28;20019;-74
2022/11/30 01:06:22;;;;;;;3.30;2.58;;;;;;;;;;10550202;28;20092;-77
2022/11/30 01:11:24;;;;;;;5.50;2.58;;;;;;;;;;10566938;28;20036;-73
2022/11/30 01:16:26;;;;;;;11.13;2.38;;;;;;;;;;10532330;28;20023;-77
2022/11/30 01:21:30;;;;;;;2.97;1.83;;;;;;;;;;10549090;28;20505;-77
2022/11/30 01:26:30;;;;;;;3.30;2.28;;;;;;;;;;10566493;28;20031;-73
2022/11/30 01:31:31;;;;;;;4.63;1.98;;;;;;;;;;10567185;28;20478;-77
2022/11/30 01:36:32;;;;;;;3.42;2.15;;;;;;;;;;10567032;28;20051;-78
2022/11/30 01:41:32;;;;;;;2.80;1.95;;;;;;;;;;10547866;28;20278;-75
2022/11/30 01:46:34;;;;;;;3.88;2.42;;;;;;;;;;10548557;28;20046;-76
2022/11/30 01:51:43;;;;;;;3.45;2.22;;;;;;;;;;10550390;28;20400;-77
2022/11/30 01:56:52;;;;;;;3.78;2.30;;;;;;;;;;10568062;28;20020;-78
2022/11/30 02:01:53;;;;;;;7.07;2.65;;;;;;;;;;10545752;28;20262;-76
2022/11/30 02:06:55;;;;;;;3.42;2.40;;;;;;;;;;10558358;28;20024;-78
2022/11/30 02:11:56;;;;;;;3.78;2.15;;;;;;;;;;10514730;28;20028;-73
2022/11/30 02:17:20;;;;;;;3.70;2.53;;;;;;;;;;10547328;28;20024;-78
2022/11/30 02:22:39;;;;;;;3.22;2.15;;;;;;;;;;10539331;28;20031;-77
2022/11/30 02:27:47;;;;;;;4.03;2.15;;;;;;;;;;10598467;28;20027;-78
2022/11/30 02:32:49;;;;;;;4.35;2.08;;;;;;;;;;10567037;28;20028;-76
2022/11/30 02:37:50;;;;;;;2.47;2.17;;;;;;;;;;10588959;28;20831;-77
2022/11/30 02:42:53;;;;;;;3.63;2.45;;;;;;;;;;10534968;28;20048;-79
2022/11/30 02:48:09;;;;;;;3.42;2.65;;;;;;;;;;10555831;28;20085;-80
2022/11/30 02:53:10;;;;;;;2.80;1.92;;;;;;;;;;10668307;22;20534;-78
2022/11/30 02:58:10;;;;;;;4.47;2.67;;;;;;;;;;10595436;27;20117;-77
2022/11/30 03:03:11;;;;;;;3.33;2.53;;;;;;;;;;10595699;27;20265;-74
2022/11/30 03:08:11;;;;;;;2.80;2.00;;;;;;;;;;10613956;27;20114;-75
2022/11/30 03:13:13;;;;;;;2.50;1.80;;;;;;;;;;10594263;27;20712;-75
2022/11/30 03:18:13;;;;;;;3.20;2.15;;;;;;;;;;10613036;27;20478;-76
2022/11/30 03:23:13;;;;;;;2.55;1.52;;;;;;;;;;10595221;27;20046;-77
2022/11/30 03:28:15;;;;;;;2.30;1.90;;;;;;;;;;10594844;27;20034;-73
2022/11/30 03:33:16;;;;;;;2.95;1.38;;;;;;;;;;10595031;27;20019;-77
2022/11/30 03:38:17;;;;;;;1.30;1.05;;;;;;;;;;10613476;27;20023;-76
2022/11/30 03:43:18;;;;;;;1.60;1.50;;;;;;;;;;10595228;27;20019;-72
2022/11/30 03:48:19;;;;;;;1.58;1.20;;;;;;;;;;10593316;27;20035;-77
2022/11/30 03:53:21;;;;;;;1.58;1.30;;;;;;;;;;10596577;27;20107;-84
2022/11/30 03:58:22;;;;;;;1.63;1.20;;;;;;;;;;10568237;28;20020;-77
2022/11/30 04:03:22;;;;;;;2.17;1.63;;;;;;;;;;10559773;27;20023;-76
2022/11/30 04:08:23;;;;;;;3.17;1.30;;;;;;;;;;10592919;27;20019;-77
2022/11/30 04:13:27;;;;;;;2.03;1.27;;;;;;;;;;10593820;27;20079;-79
2022/11/30 04:18:28;;;;;;;7.20;1.40;;;;;;;;;;10613285;27;20038;-79
2022/11/30 04:23:30;;;;;;;1.17;0.90;;;;;;;;;;10611629;27;20106;-78
2022/11/30 04:28:31;;;;;;;1.17;1.00;;;;;;;;;;10595318;27;20035;-77
2022/11/30 04:33:31;;;;;;;2.10;1.45;;;;;;;;;;10613973;27;20023;-74
2022/11/30 04:38:35;;;;;;;1.92;0.85;;;;;;;;;;10621410;27;20027;-80
2022/11/30 04:43:36;;;;;;;2.13;1.50;;;;;;;;;;10633576;27;20035;-76
2022/11/30 04:48:36;;;;;;;1.60;1.30;;;;;;;;;;10603177;27;20023;-77
2022/11/30 04:53:37;;;;;;;1.83;1.30;;;;;;;;;;10623498;27;20062;-76
2022/11/30 04:58:39;;;;;;;2.75;1.77;;;;;;;;;;10570169;28;20024;-75
2022/11/30 05:03:40;;;;;;;7.30;2.55;;;;;;;;;;10599752;27;20031;-77
2022/11/30 05:08:41;;;;;;;1.70;1.60;;;;;;;;;;10593406;27;20085;-78
2022/11/30 05:13:41;;;;;;;4.30;1.92;;;;;;;;;;10591713;28;20110;-78
2022/11/30 05:18:42;;;;;;;2.55;2.00;;;;;;;;;;10591757;27;20031;-75
2022/11/30 05:23:42;;;;;;;4.10;3.55;;;;;;;;;;10592063;28;20031;-78
2022/11/30 05:28:42;;;;;;;4.50;2.20;;;;;;;;;;10563763;28;20038;-74
2022/11/30 05:33:42;;;;;;;3.00;2.00;;;;;;;;;;10577382;27;20110;-74
2022/11/30 05:38:43;;;;;;;7.22;2.15;;;;;;;;;;10591957;27;20023;-76
2022/11/30 05:43:43;;;;;;;2.65;1.85;;;;;;;;;;10575505;27;20570;-76
2022/11/30 05:48:44;;;;;;;2.63;2.37;;;;;;;;;;10583816;27;20072;-80
2022/11/30 05:53:45;;;;;;;1.88;1.45;;;;;;;;;;10599282;27;21068;-76
2022/11/30 05:58:46;;;;;;;3.08;1.85;;;;;;;;;;10597301;27;20034;-76
2022/11/30 06:03:48;;;;;;;2.40;1.80;;;;;;;;;;10599308;27;20023;-79
2022/11/30 06:08:49;;;;;;;5.25;2.33;;;;;;;;;;10579662;27;20024;-78
2022/11/30 06:13:49;;;;;;;2.42;2.13;;;;;;;;;;10595024;27;20027;-78
2022/11/30 06:18:49;;;;;;;4.20;2.63;;;;;;;;;;10597145;27;20027;-75
2022/11/30 06:23:50;;;;;;;3.93;2.30;;;;;;;;;;10615267;27;20104;-75
2022/11/30 06:28:51;;;;;;;3.37;2.57;;;;;;;;;;10592489;27;20501;-76
2022/11/30 06:33:54;;;;;;;3.92;2.38;;;;;;;;;;10597559;27;20865;-74
2022/11/30 06:38:55;;;;;;;6.15;2.90;;;;;;;;;;10597214;27;20019;-76
2022/11/30 06:43:55;;;;;;;4.80;2.92;;;;;;;;;;10616254;27;20406;-80
2022/11/30 06:48:56;;;;;;;8.35;4.10;;;;;;;;;;10615122;27;20083;-72
2022/11/30 06:53:57;;;;;;;4.82;2.90;;;;;;;;;;10618997;27;20051;-71
2022/11/30 06:58:57;;;;;;;6.13;3.95;;;;;;;;;;10629656;27;20072;-72
2022/11/30 07:03:57;;;;;;;8.80;6.20;;;;;;;;;;10606247;27;20680;-73
2022/11/30 07:08:57;;;;;;;4.40;3.30;;;;;;;;;;10599940;27;20016;-76
2022/11/30 07:13:58;;;;;;;8.10;3.13;;;;;;;;;;10592543;27;20237;-78
2022/11/30 07:18:58;;;;;;;4.75;2.70;;;;;;;;;;10587343;27;20023;-75
2022/11/30 07:29:18;;;;;;;3.33;2.30;;;;;;;;;;10589724;27;20023;-84
2022/11/30 07:34:19;;;;;;;3.85;2.38;;;;;;;;;;10589809;27;20019;-80
2022/11/30 07:39:19;;;;;;;2.85;2.00;;;;;;;;;;10589128;27;20023;-80
2022/11/30 07:44:20;;;;;;;1.88;1.73;;;;;;;;;;10592380;27;20111;-78
2022/11/30 07:49:21;;;;;;;4.72;1.52;;;;;;;;;;10585080;27;20094;-77
2022/11/30 07:54:21;;;;;;;2.10;1.40;;;;;;;;;;10575850;27;20058;-75
2022/11/30 07:59:21;;;;;;;1.90;1.13;;;;;;;;;;10571104;27;20479;-75
2022/11/30 08:04:21;;;;;;;1.23;1.00;;;;;;;;;;10608238;27;20023;-75
2022/11/30 08:09:22;;;;;;;1.30;1.13;;;;;;;;;;10599855;27;20027;-78
2022/11/30 08:14:22;;;;;;;2.20;1.20;;;;;;;;;;10577957;27;20069;-76
2022/11/30 08:19:23;;;;;;;2.35;1.55;;;;;;;;;;10590173;27;20057;-77
2022/11/30 08:24:25;;;;;;;4.07;1.90;;;;;;;;;;10610889;27;20422;-79
2022/11/30 08:29:25;;;;;;;3.42;1.98;;;;;;;;;;10579824;27;20187;-75
2022/11/30 08:34:25;;;;;;;2.13;1.73;;;;;;;;;;10580025;27;20483;-76
2022/11/30 08:39:27;;;;;;;5.93;2.42;;;;;;;;;;10598074;27;20866;-80
2022/11/30 08:44:28;;;;;;;3.00;1.70;;;;;;;;;;10574302;27;20027;-81
2022/11/30 08:49:29;;;;;;;1.40;1.30;;;;;;;;;;10592366;27;20500;-82
2022/11/30 08:54:30;;;;;;;4.07;2.22;;;;;;;;;;10590492;27;20633;-77
2022/11/30 08:59:30;;;;;;;5.57;3.42;;;;;;;;;;10590685;28;20033;-74
2022/11/30 09:04:31;;;;;;;5.63;3.15;;;;;;;;;;10600646;28;20069;-72
2022/11/30 09:09:33;;;;;;;3.67;2.13;;;;;;;;;;10638163;27;20108;-74
2022/11/30 09:14:33;;;;;;;4.13;2.20;;;;;;;;;;10603723;27;20027;-78
2022/11/30 09:19:33;;;;;;;3.37;2.07;;;;;;;;;;10568349;27;20991;-76
2022/11/30 09:24:33;;;;;;;4.82;2.13;;;;;;;;;;10587425;27;20486;-76
2022/11/30 09:29:35;;;;;;;4.82;2.65;;;;;;;;;;10599512;27;20479;-79
2022/11/30 09:34:35;;;;;;;2.72;1.88;;;;;;;;;;10599116;27;20023;-78
2022/11/30 09:39:35;;;;;;;3.90;2.58;;;;;;;;;;10596657;27;20027;-78
2022/11/30 09:44:35;;;;;;;3.88;1.17;;;;;;;;;;10597346;27;20031;-75
2022/11/30 09:49:38;;;;;;;2.50;1.40;;;;;;;;;;10596970;27;20059;-75
2022/11/30 09:54:39;;;;;;;2.80;1.42;;;;;;;;;;10577709;27;20059;-75
2022/11/30 09:59:43;;;;;;;3.85;2.20;;;;;;;;;;10595471;27;20019;-76
2022/11/30 10:04:44;;;;;;;3.67;1.70;;;;;;;;;;10593445;27;20023;-78
2022/11/30 10:09:52;;;;;;;6.07;2.35;;;;;;;;;;10604064;27;20031;-77
2022/11/30 10:15:14;;;;;;;4.03;1.77;;;;;;;;;;10597558;27;20019;-80
2022/11/30 10:20:18;;;;;;;7.28;2.35;;;;;;;;;;10614846;27;20088;-77
2022/11/30 10:25:31;;;;;;;3.97;2.13;;;;;;;;;;10604365;27;20073;-80
2022/11/30 10:30:36;;;;;;;4.57;1.77;;;;;;;;;;10596134;27;20066;-81
2022/11/30 10:35:36;;;;;;;1.63;1.40;;;;;;;;;;10570609;28;20044;-81
2022/11/30 10:40:47;;;;;;;3.10;1.95;;;;;;;;;;10591478;27;20040;-78
2022/11/30 10:45:54;;;;;;;5.97;1.60;;;;;;;;;;10581629;27;20031;-78
2022/11/30 10:50:59;;;;;;;1.70;1.33;;;;;;;;;;10597546;27;20126;-77
2022/11/30 10:56:08;;;;;;;2.75;1.83;;;;;;;;;;10587826;27;20050;-73
2022/11/30 11:01:10;;;;;;;5.72;2.47;;;;;;;;;;10591788;27;20023;-76
2022/11/30 11:06:18;;;;;;;7.80;2.53;;;;;;;;;;10588824;27;20035;-76
2022/11/30 11:11:33;;;;;;;4.40;2.15;;;;;;;;;;10578667;27;20038;-76
2022/11/30 11:16:50;;;;;;;6.80;2.47;;;;;;;;;;10592441;27;20091;-76
2022/11/30 11:21:51;;;;;;;2.95;2.20;;;;;;;;;;10590871;27;20147;-77
2022/11/30 11:26:52;;;;;;;4.13;2.85;;;;;;;;;;10603718;27;20395;-72
2022/11/30 11:31:53;;;;;;;4.35;2.30;;;;;;;;;;10609712;27;20034;-75
2022/11/30 11:37:06;;;;;;;9.30;3.13;;;;;;;;;;10577927;27;20019;-74
2022/11/30 11:42:13;;;;;;;4.85;2.95;;;;;;;;;;10581840;27;20031;-73
2022/11/30 11:47:22;;;;;;;3.20;2.50;;;;;;;;;;10567711;27;20031;-79
2022/11/30 11:52:23;;;;;;;4.43;3.10;;;;;;;;;;10564883;27;20532;-80
2022/11/30 11:57:36;;;;;;;6.68;2.75;;;;;;;;;;10562856;27;20026;-75
2022/11/30 12:02:44;;;;;;;5.68;3.38;;;;;;;;;;10587172;27;20418;-75
2022/11/30 12:08:23;;;;;;;5.90;2.43;;;;;;;;;;10577629;27;20035;-80
2022/11/30 12:13:33;;;;;;;3.28;2.40;;;;;;;;;;10392613;28;20343;-77
2022/11/30 12:18:43;;;;;;;3.40;2.28;;;;;;;;;;10533409;27;20469;-76
2022/11/30 12:23:43;;;;;;;2.65;2.05;;;;;;;;;;10588285;27;20099;-76
2022/11/30 12:28:56;;;;;;;3.58;1.65;;;;;;;;;;10575965;27;20522;-79
2022/11/30 12:34:16;;;;;;;5.40;2.55;;;;;;;;;;10578742;27;20399;-76
2022/11/30 12:39:28;;;;;;;4.53;3.10;;;;;;;;;;10594604;27;20475;-80
2022/11/30 12:44:31;;;;;;;3.88;2.60;;;;;;;;;;10579018;27;20026;-76
2022/11/30 12:49:52;;;;;;;5.45;3.15;;;;;;;;;;10573488;27;20281;-74
2022/11/30 12:54:52;;;;;;;8.25;3.47;;;;;;;;;;10576255;27;20105;-77
2022/11/30 12:59:53;;;;;;;7.78;2.95;;;;;;;;;;10568548;28;20028;-78
2022/11/30 13:05:03;;;;;;;9.93;2.45;;;;;;;;;;10582607;28;20119;-75
2022/11/30 13:10:41;;;;;;;5.40;2.42;;;;;;;;;;10569676;27;20027;-79
2022/11/30 13:15:43;;;;;;;4.25;2.20;;;;;;;;;;10478889;28;20166;-80
2022/11/30 13:20:52;;;;;;;6.85;2.45;;;;;;;;;;10563886;28;20032;-79
2022/11/30 13:25:56;;;;;;;6.97;2.33;;;;;;;;;;10571163;28;20035;-78
2022/11/30 13:31:05;;;;;;;4.40;2.15;;;;;;;;;;10584054;28;20477;-73
2022/11/30 13:36:29;;;;;;;6.50;4.40;;;;;;;;;;10579078;28;20062;-80
2022/11/30 13:41:30;;;;;;;2.92;2.50;;;;;;;;;;10571096;28;20127;-77
2022/11/30 13:46:31;;;;;;;3.63;2.30;;;;;;;;;;10602796;27;20058;-77
2022/11/30 13:51:36;;;;;;;4.55;3.13;;;;;;;;;;10593614;28;20297;-73
2022/11/30 13:56:36;;;;;;;4.43;2.63;;;;;;;;;;10598988;28;20124;-77
2022/11/30 14:01:37;;;;;;;5.53;2.27;;;;;;;;;;10578994;27;20110;-79
2022/11/30 14:06:40;;;;;;;2.15;1.75;;;;;;;;;;10587930;27;20129;-76
2022/11/30 14:11:41;;;;;;;8.18;6.05;;;;;;;;;;10577672;27;20038;-75
2022/11/30 14:16:42;;;;;;;6.03;4.50;;;;;;;;;;10580938;27;20027;-74
2022/11/30 14:21:43;;;;;;;13.32;5.47;;;;;;;;;;10581023;27;20046;-76
2022/11/30 14:26:45;;;;;;;7.78;5.03;;;;;;;;;;10575854;27;20039;-78
2022/11/30 14:31:50;;;;;;;12.50;5.25;;;;;;;;;;10574427;27;20038;-76
2022/11/30 14:36:53;;;;;;;8.98;3.55;;;;;;;;;;10575100;27;20027;-74
2022/11/30 14:41:53;;;;;;;9.45;4.45;;;;;;;;;;10570758;27;20106;-78
2022/11/30 14:46:54;;;;;;;4.07;3.35;;;;;;;;;;10584594;27;20019;-75
2022/11/30 14:52:03;;;;;;;10.02;4.15;;;;;;;;;;10577186;27;20530;-76
2022/11/30 14:57:13;;;;;;;5.85;3.65;;;;;;;;;;10595277;27;20490;-77
2022/11/30 15:02:41;;;;;;;6.38;4.07;;;;;;;;;;10593318;27;20027;-77
2022/11/30 15:07:42;;;;;;;7.15;3.25;;;;;;;;;;10572644;27;20031;-78
2022/11/30 15:12:43;;;;;;;10.35;3.85;;;;;;;;;;10588277;27;20034;-81
2022/11/30 15:17:48;;;;;;;7.03;3.33;;;;;;;;;;10577391;27;20020;-83
2022/11/30 15:22:48;;;;;;;8.82;3.50;;;;;;;;;;10581910;27;20117;-78
2022/11/30 15:27:49;;;;;;;6.65;4.15;;;;;;;;;;10569221;27;20027;-77
2022/11/30 15:32:53;;;;;;;6.93;3.47;;;;;;;;;;10572085;27;20023;-79
2022/11/30 15:37:54;;;;;;;7.22;3.92;;;;;;;;;;10572044;27;20631;-77
2022/11/30 15:42:54;;;;;;;4.18;3.17;;;;;;;;;;10585159;27;20025;-76
2022/11/30 15:47:56;;;;;;;10.27;2.78;;;;;;;;;;10574211;27;20020;-78
2022/11/30 15:52:57;;;;;;;5.88;3.25;;;;;;;;;;10571927;27;20407;-79
2022/11/30 15:57:58;;;;;;;4.25;2.80;;;;;;;;;;10591707;27;20099;-73
2022/11/30 16:03:09;;;;;;;6.97;2.97;;;;;;;;;;10606476;27;20023;-77
2022/11/30 16:08:18;;;;;;;4.53;2.92;;;;;;;;;;10569623;27;20114;-77
2022/11/30 16:13:19;;;;;;;3.53;2.88;;;;;;;;;;10589985;27;20036;-77
2022/11/30 16:18:27;;;;;;;6.18;3.88;;;;;;;;;;10605205;27;20038;-76
2022/11/30 16:23:28;;;;;;;9.68;2.88;;;;;;;;;;10611523;27;20026;-83
2022/11/30 16:28:30;;;;;;;5.57;3.70;;;;;;;;;;10577479;27;20024;-80
2022/11/30 16:33:30;;;;;;;6.18;3.70;;;;;;;;;;10570177;27;20160;-80
2022/11/30 16:38:32;;;;;;;6.95;4.43;;;;;;;;;;10591599;27;20084;-80
2022/11/30 16:43:53;;;;;;;5.03;3.05;;;;;;;;;;10569649;27;20042;-81
2022/11/30 16:48:53;;;;;;;5.22;3.17;;;;;;;;;;10569577;27;20027;-77
2022/11/30 16:53:54;;;;;;;9.57;4.47;;;;;;;;;;10581938;27;20141;-79
2022/11/30 16:58:54;;;;;;;5.55;3.85;;;;;;;;;;10584198;27;20027;-80
2022/11/30 17:03:57;;;;;;;5.15;3.65;;;;;;;;;;10598025;28;20114;-80
2022/11/30 17:09:10;;;;;;;6.00;3.15;;;;;;;;;;10585460;28;20042;-83
2022/11/30 17:14:12;;;;;;;6.78;2.92;;;;;;;;;;10588128;27;20026;-80
2022/11/30 17:19:13;;;;;;;3.90;2.88;;;;;;;;;;10572198;28;20030;-85
2022/11/30 17:24:28;;;;;;;6.20;3.03;;;;;;;;;;10594989;28;20444;-81
2022/11/30 17:29:29;;;;;;;4.63;3.05;;;;;;;;;;10572368;28;20043;-82
2022/11/30 17:34:51;;;;;;;6.68;2.70;;;;;;;;;;10535501;27;20411;-81
2022/11/30 17:39:57;;;;;;;5.65;2.75;;;;;;;;;;10496495;28;20037;-79
2022/11/30 17:45:08;;;;;;;4.68;2.25;;;;;;;;;;10480790;28;20023;-76
2022/11/30 17:50:09;;;;;;;4.15;3.13;;;;;;;;;;10473433;28;20110;-78
2022/11/30 17:55:10;;;;;;;4.93;2.42;;;;;;;;;;10477947;28;20021;-80
2022/11/30 18:00:11;;;;;;;6.50;3.78;;;;;;;;;;10484825;28;20044;-79
2022/11/30 18:05:11;;;;;;;4.55;2.53;;;;;;;;;;10471574;28;20502;-84
2022/11/30 18:10:14;;;;;;;5.88;2.90;;;;;;;;;;10471992;28;20060;-75
2022/11/30 18:15:15;;;;;;;3.00;2.30;;;;;;;;;;10523753;28;20016;-75
2022/11/30 18:20:15;;;;;;;6.85;3.88;;;;;;;;;;10499049;28;20047;-73
2022/11/30 18:25:16;;;;;;;4.77;2.83;;;;;;;;;;10499920;28;20016;-73
2022/11/30 18:30:22;;;;;;;8.93;3.83;;;;;;;;;;10481409;28;20051;-82
2022/11/30 18:35:23;;;;;;;6.72;3.28;;;;;;;;;;10476730;28;20028;-82
2022/11/30 18:40:24;;;;;;;6.88;3.50;;;;;;;;;;10466005;28;20039;-78
2022/11/30 18:45:26;;;;;;;5.78;3.17;;;;;;;;;;10465207;28;20029;-79
2022/11/30 18:50:31;;;;;;;14.00;2.95;;;;;;;;;;10444967;28;20116;-80
2022/11/30 18:55:31;;;;;;;7.85;3.10;;;;;;;;;;10459583;28;20025;-72
2022/11/30 19:00:32;;;;;;;3.47;2.80;;;;;;;;;;10430661;28;20083;-81
2022/11/30 19:05:38;;;;;;;6.88;3.10;;;;;;;;;;10463199;28;20047;-77
2022/11/30 19:10:38;;;;;;;5.05;2.58;;;;;;;;;;10427148;28;20059;-75
2022/11/30 19:15:40;;;;;;;6.87;2.73;;;;;;;;;;10444639;28;20456;-82
2022/11/30 19:20:42;;;;;;;4.30;2.83;;;;;;;;;;10441156;28;20028;-83
2022/11/30 19:25:43;;;;;;;6.63;4.07;;;;;;;;;;10426433;28;20486;-82
2022/11/30 19:30:44;;;;;;;4.50;3.25;;;;;;;;;;10447606;28;20044;-79
2022/11/30 19:35:44;;;;;;;3.33;2.55;;;;;;;;;;10439596;28;20040;-78
2022/11/30 19:40:45;;;;;;;3.95;2.50;;;;;;;;;;10443712;28;20079;-82
2022/11/30 19:45:46;;;;;;;3.45;2.50;;;;;;;;;;10434851;28;20055;-81
2022/11/30 19:50:47;;;;;;;6.22;2.13;;;;;;;;;;10444822;28;20508;-81
2022/11/30 19:55:48;;;;;;;8.73;2.35;;;;;;;;;;10439407;28;20118;-80
2022/11/30 20:00:48;;;;;;;7.30;2.47;;;;;;;;;;10461480;28;20615;-81
2022/11/30 20:05:49;;;;;;;2.40;1.67;;;;;;;;;;10418038;28;20036;-78
2022/11/30 20:10:49;;;;;;;4.25;2.38;;;;;;;;;;10462574;28;20490;-82
2022/11/30 20:15:49;;;;;;;4.20;2.22;;;;;;;;;;10430121;28;20031;-80
2022/11/30 20:20:49;;;;;;;4.47;2.63;;;;;;;;;;10453644;28;20028;-75
2022/11/30 20:26:03;;;;;;;3.55;2.63;;;;;;;;;;10469611;28;20052;-72
2022/11/30 20:31:07;;;;;;;5.30;2.35;;;;;;;;;;10423803;28;20050;-73
2022/11/30 20:36:08;;;;;;;2.78;1.98;;;;;;;;;;10401574;28;20033;-80
2022/11/30 20:41:14;;;;;;;5.28;2.65;;;;;;;;;;10394159;28;20030;-78
2022/11/30 20:46:23;;;;;;;1.83;1.65;;;;;;;;;;10391065;28;20029;-81
2022/11/30 20:51:26;;;;;;;2.53;2.05;;;;;;;;;;10368905;28;20120;-76
2022/11/30 20:56:27;;;;;;;3.13;1.95;;;;;;;;;;10391347;28;20179;-76
2022/11/30 21:01:28;;;;;;;2.63;1.87;;;;;;;;;;10364846;28;20137;-78
2022/11/30 21:06:28;;;;;;;4.93;1.77;;;;;;;;;;10370145;28;20164;-80
2022/11/30 21:11:29;;;;;;;3.03;1.80;;;;;;;;;;10398599;28;20029;-78
2022/11/30 21:16:29;;;;;;;3.97;2.07;;;;;;;;;;10383834;28;20018;-76
2022/11/30 21:21:30;;;;;;;3.50;2.08;;;;;;;;;;10368271;28;20021;-80
2022/11/30 21:26:32;;;;;;;2.80;1.40;;;;;;;;;;10364474;28;20072;-78
2022/11/30 21:31:34;;;;;;;2.65;1.23;;;;;;;;;;10400193;28;20493;-82
2022/11/30 21:36:35;;;;;;;1.98;1.58;;;;;;;;;;10438920;28;20024;-77
2022/11/30 21:41:36;;;;;;;2.17;1.30;;;;;;;;;;10437493;28;20624;-81
2022/11/30 21:46:36;;;;;;;2.65;1.38;;;;;;;;;;10433249;28;20081;-82
2022/11/30 21:51:37;;;;;;;1.48;1.08;;;;;;;;;;10452152;28;20066;-79
2022/11/30 21:56:39;;;;;;;1.25;1.15;;;;;;;;;;10424520;28;20513;-82
2022/11/30 22:01:40;;;;;;;3.58;2.40;;;;;;;;;;10438070;28;20479;-78
2022/11/30 22:06:41;;;;;;;5.85;2.03;;;;;;;;;;10430432;28;20478;-84
2022/11/30 22:11:45;;;;;;;2.60;1.70;;;;;;;;;;10433808;28;20017;-79
2022/11/30 22:16:45;;;;;;;1.65;1.13;;;;;;;;;;10410690;28;20083;-81
2022/11/30 22:21:46;;;;;;;1.60;1.23;;;;;;;;;;10437470;28;20047;-75
2022/11/30 22:26:47;;;;;;;1.80;1.23;;;;;;;;;;10439703;28;20035;-80
2022/11/30 22:31:52;;;;;;;1.20;0.82;;;;;;;;;;10463281;28;20041;-76
2022/11/30 22:36:52;;;;;;;2.60;1.13;;;;;;;;;;10483115;28;20080;-77
2022/11/30 22:41:53;;;;;;;2.80;1.35;;;;;;;;;;10456936;28;20029;-75
2022/11/30 22:46:54;;;;;;;2.20;1.48;;;;;;;;;;10488472;28;20054;-77
2022/11/30 22:51:54;;;;;;;2.15;1.50;;;;;;;;;;10429523;28;20063;-80
2022/11/30 22:56:55;;;;;;;4.40;1.10;;;;;;;;;;10441215;28;20115;-79
2022/11/30 23:01:56;;;;;;;1.60;1.30;;;;;;;;;;10440030;28;20279;-76
2022/11/30 23:06:57;;;;;;;2.50;1.17;;;;;;;;;;10467486;28;20045;-79
2022/11/30 23:11:57;;;;;;;1.20;0.90;;;;;;;;;;10443362;28;20033;-76
2022/11/30 23:16:57;;;;;;;1.92;0.80;;;;;;;;;;10418995;28;20100;-77
2022/11/30 23:21:58;;;;;;;1.30;0.85;;;;;;;;;;10437905;28;20495;-75
2022/11/30 23:26:58;;;;;;;4.03;0.82;;;;;;;;;;10434349;28;20081;-76
2022/11/30 23:31:58;;;;;;;1.92;0.52;;;;;;;;;;10393784;28;20480;-82
2022/11/30 23:36:59;;;;;;;0.63;0.63;;;;;;;;;;10347879;28;20404;-79
2022/11/30 23:41:59;;;;;;;1.17;0.50;;;;;;;;;;10390643;28;20025;-81
2022/11/30 23:47:00;;;;;;;0.90;0.45;;;;;;;;;;10406602;28;20617;-81
2022/11/30 23:52:00;;;;;;;0.90;0.90;;;;;;;;;;10377055;28;20133;-82
2022/11/30 23:57:00;;;;;;;1.08;0.80;;;;;;;;;;10389018;28;20112;-77
